sensor_id;sensor_type;location;lat;lon;timestamp;P1;durP1;ratioP1;P2;durP2;ratioP2
56399;SDS011;42298;53.638;9.876;2023-03-01T00:01:58;22.03;;;13.83;;
56399;SDS011;42298;53.638;9.876;2023-03-01T00:04:24;23.47;;;14.07;;
56399;SDS011;42298;53.638;9.876;2023-03-01T00:06:49;22.23;;;14.47;;
56399;SDS011;42298;53.638;9.876;2023-03-01T00:09:15;23.70;;;14.57;;
56399;SDS011;42298;53.638;9.876;2023-03-01T00:11:40;20.83;;;13.17;;
56399;SDS011;42298;53.638;9.876;2023-03-01T00:14:06;22.17;;;13.73;;
56399;SDS011;42298;53.638;9.876;2023-03-01T00:16:35;20.63;;;12.97;;
56399;SDS011;42298;53.638;9.876;2023-03-01T00:19:04;23.63;;;13.87;;
56399;SDS011;42298;53.638;9.876;2023-03-01T00:21:30;21.40;;;14.00;;
56399;SDS011;42298;53.638;9.876;2023-03-01T00:23:56;23.10;;;13.30;;
56399;SDS011;42298;53.638;9.876;2023-03-01T00:26:21;22.27;;;13.87;;
56399;SDS011;42298;53.638;9.876;2023-03-01T00:28:48;22.07;;;14.13;;
56399;SDS011;42298;53.638;9.876;2023-03-01T00:31:15;21.13;;;13.77;;
56399;SDS011;42298;53.638;9.876;2023-03-01T00:33:42;21.37;;;13.03;;
56399;SDS011;42298;53.638;9.876;2023-03-01T00:36:09;20.73;;;13.60;;
56399;SDS011;42298;53.638;9.876;2023-03-01T00:38:36;23.97;;;14.00;;
56399;SDS011;42298;53.638;9.876;2023-03-01T00:41:04;22.20;;;13.73;;
56399;SDS011;42298;53.638;9.876;2023-03-01T00:43:30;22.57;;;13.17;;
56399;SDS011;42298;53.638;9.876;2023-03-01T00:46:22;21.73;;;13.50;;
56399;SDS011;42298;53.638;9.876;2023-03-01T00:48:49;21.07;;;13.13;;
56399;SDS011;42298;53.638;9.876;2023-03-01T00:51:15;20.23;;;13.33;;
56399;SDS011;42298;53.638;9.876;2023-03-01T00:53:44;21.03;;;12.67;;
56399;SDS011;42298;53.638;9.876;2023-03-01T00:56:11;20.30;;;12.57;;
56399;SDS011;42298;53.638;9.876;2023-03-01T00:58:38;21.93;;;12.90;;
56399;SDS011;42298;53.638;9.876;2023-03-01T01:01:07;21.97;;;14.17;;
56399;SDS011;42298;53.638;9.876;2023-03-01T01:03:44;22.57;;;13.77;;
56399;SDS011;42298;53.638;9.876;2023-03-01T01:06:14;21.60;;;13.10;;
56399;SDS011;42298;53.638;9.876;2023-03-01T01:08:43;20.37;;;13.03;;
56399;SDS011;42298;53.638;9.876;2023-03-01T01:11:11;22.17;;;13.43;;
56399;SDS011;42298;53.638;9.876;2023-03-01T01:13:37;23.17;;;13.80;;
56399;SDS011;42298;53.638;9.876;2023-03-01T01:16:04;18.77;;;12.20;;
56399;SDS011;42298;53.638;9.876;2023-03-01T01:18:30;20.07;;;12.20;;
56399;SDS011;42298;53.638;9.876;2023-03-01T01:20:56;20.43;;;12.93;;
56399;SDS011;42298;53.638;9.876;2023-03-01T01:23:21;20.87;;;13.07;;
56399;SDS011;42298;53.638;9.876;2023-03-01T01:25:47;22.83;;;13.80;;
56399;SDS011;42298;53.638;9.876;2023-03-01T01:28:12;23.53;;;14.10;;
56399;SDS011;42298;53.638;9.876;2023-03-01T01:30:37;24.53;;;13.67;;
56399;SDS011;42298;53.638;9.876;2023-03-01T01:33:03;19.40;;;12.90;;
56399;SDS011;42298;53.638;9.876;2023-03-01T01:35:28;20.13;;;13.03;;
56399;SDS011;42298;53.638;9.876;2023-03-01T01:37:53;21.30;;;12.13;;
56399;SDS011;42298;53.638;9.876;2023-03-01T01:40:19;20.37;;;13.00;;
56399;SDS011;42298;53.638;9.876;2023-03-01T01:42:44;19.20;;;12.03;;
56399;SDS011;42298;53.638;9.876;2023-03-01T01:45:30;21.67;;;12.93;;
56399;SDS011;42298;53.638;9.876;2023-03-01T01:48:00;18.37;;;11.27;;
56399;SDS011;42298;53.638;9.876;2023-03-01T01:50:38;21.80;;;12.73;;
56399;SDS011;42298;53.638;9.876;2023-03-01T01:53:06;20.80;;;12.50;;
56399;SDS011;42298;53.638;9.876;2023-03-01T01:55:35;19.37;;;11.83;;
56399;SDS011;42298;53.638;9.876;2023-03-01T01:58:02;19.37;;;12.27;;
56399;SDS011;42298;53.638;9.876;2023-03-01T02:00:31;22.57;;;13.00;;
56399;SDS011;42298;53.638;9.876;2023-03-01T02:03:01;20.63;;;13.50;;
56399;SDS011;42298;53.638;9.876;2023-03-01T02:08:15;20.70;;;12.23;;
56399;SDS011;42298;53.638;9.876;2023-03-01T02:10:43;20.47;;;13.40;;
56399;SDS011;42298;53.638;9.876;2023-03-01T02:13:10;20.80;;;12.40;;
56399;SDS011;42298;53.638;9.876;2023-03-01T02:15:38;18.27;;;12.43;;
56399;SDS011;42298;53.638;9.876;2023-03-01T02:18:05;20.00;;;12.10;;
56399;SDS011;42298;53.638;9.876;2023-03-01T02:20:33;21.33;;;13.00;;
56399;SDS011;42298;53.638;9.876;2023-03-01T02:23:06;18.87;;;12.13;;
56399;SDS011;42298;53.638;9.876;2023-03-01T02:25:39;19.93;;;12.90;;
56399;SDS011;42298;53.638;9.876;2023-03-01T02:30:43;18.70;;;12.10;;
56399;SDS011;42298;53.638;9.876;2023-03-01T02:33:29;20.63;;;13.23;;
56399;SDS011;42298;53.638;9.876;2023-03-01T02:35:58;20.63;;;12.90;;
56399;SDS011;42298;53.638;9.876;2023-03-01T02:38:25;19.30;;;11.67;;
56399;SDS011;42298;53.638;9.876;2023-03-01T02:40:51;18.57;;;11.70;;
56399;SDS011;42298;53.638;9.876;2023-03-01T02:43:17;19.47;;;12.90;;
56399;SDS011;42298;53.638;9.876;2023-03-01T02:45:49;20.93;;;12.67;;
56399;SDS011;42298;53.638;9.876;2023-03-01T02:48:15;17.97;;;11.03;;
56399;SDS011;42298;53.638;9.876;2023-03-01T02:50:46;18.90;;;12.03;;
56399;SDS011;42298;53.638;9.876;2023-03-01T02:53:20;19.20;;;12.07;;
56399;SDS011;42298;53.638;9.876;2023-03-01T02:55:53;19.00;;;12.53;;
56399;SDS011;42298;53.638;9.876;2023-03-01T02:58:20;20.03;;;12.97;;
56399;SDS011;42298;53.638;9.876;2023-03-01T03:00:45;20.30;;;11.80;;
56399;SDS011;42298;53.638;9.876;2023-03-01T03:03:15;18.67;;;13.13;;
56399;SDS011;42298;53.638;9.876;2023-03-01T03:05:42;18.87;;;12.00;;
56399;SDS011;42298;53.638;9.876;2023-03-01T03:08:07;19.33;;;11.70;;
56399;SDS011;42298;53.638;9.876;2023-03-01T03:10:34;18.03;;;11.40;;
56399;SDS011;42298;53.638;9.876;2023-03-01T03:13:05;19.80;;;12.13;;
56399;SDS011;42298;53.638;9.876;2023-03-01T03:15:33;17.80;;;10.97;;
56399;SDS011;42298;53.638;9.876;2023-03-01T03:18:01;21.47;;;12.13;;
56399;SDS011;42298;53.638;9.876;2023-03-01T03:20:28;17.70;;;10.87;;
56399;SDS011;42298;53.638;9.876;2023-03-01T03:22:55;19.47;;;12.83;;
56399;SDS011;42298;53.638;9.876;2023-03-01T03:25:22;18.03;;;12.03;;
56399;SDS011;42298;53.638;9.876;2023-03-01T03:27:48;19.40;;;11.70;;
56399;SDS011;42298;53.638;9.876;2023-03-01T03:30:22;20.83;;;12.10;;
56399;SDS011;42298;53.638;9.876;2023-03-01T03:32:49;17.93;;;11.33;;
56399;SDS011;42298;53.638;9.876;2023-03-01T03:35:18;19.73;;;11.77;;
56399;SDS011;42298;53.638;9.876;2023-03-01T03:37:45;18.60;;;11.57;;
56399;SDS011;42298;53.638;9.876;2023-03-01T03:40:26;20.67;;;12.03;;
56399;SDS011;42298;53.638;9.876;2023-03-01T03:42:53;19.27;;;11.47;;
56399;SDS011;42298;53.638;9.876;2023-03-01T03:45:19;19.93;;;11.73;;
56399;SDS011;42298;53.638;9.876;2023-03-01T03:47:45;16.30;;;10.80;;
56399;SDS011;42298;53.638;9.876;2023-03-01T03:50:11;18.57;;;11.50;;
56399;SDS011;42298;53.638;9.876;2023-03-01T03:52:37;19.43;;;11.67;;
56399;SDS011;42298;53.638;9.876;2023-03-01T03:55:03;18.37;;;10.73;;
56399;SDS011;42298;53.638;9.876;2023-03-01T03:57:37;19.87;;;11.80;;
56399;SDS011;42298;53.638;9.876;2023-03-01T04:00:03;17.27;;;11.17;;
56399;SDS011;42298;53.638;9.876;2023-03-01T04:02:31;19.93;;;11.10;;
56399;SDS011;42298;53.638;9.876;2023-03-01T04:04:57;19.50;;;11.77;;
56399;SDS011;42298;53.638;9.876;2023-03-01T04:07:22;20.30;;;12.30;;
56399;SDS011;42298;53.638;9.876;2023-03-01T04:09:48;19.67;;;11.97;;
56399;SDS011;42298;53.638;9.876;2023-03-01T04:12:13;21.57;;;12.17;;
56399;SDS011;42298;53.638;9.876;2023-03-01T04:14:38;18.97;;;11.20;;
56399;SDS011;42298;53.638;9.876;2023-03-01T04:17:04;17.73;;;10.10;;
56399;SDS011;42298;53.638;9.876;2023-03-01T04:19:31;17.33;;;9.60;;
56399;SDS011;42298;53.638;9.876;2023-03-01T04:22:01;18.23;;;11.00;;
56399;SDS011;42298;53.638;9.876;2023-03-01T04:24:32;17.90;;;10.37;;
56399;SDS011;42298;53.638;9.876;2023-03-01T04:26:58;19.30;;;11.77;;
56399;SDS011;42298;53.638;9.876;2023-03-01T04:29:23;17.90;;;10.30;;
56399;SDS011;42298;53.638;9.876;2023-03-01T04:31:48;17.77;;;10.67;;
56399;SDS011;42298;53.638;9.876;2023-03-01T04:34:14;17.23;;;10.73;;
56399;SDS011;42298;53.638;9.876;2023-03-01T04:36:39;17.73;;;11.30;;
56399;SDS011;42298;53.638;9.876;2023-03-01T04:39:04;20.40;;;10.70;;
56399;SDS011;42298;53.638;9.876;2023-03-01T04:41:37;16.07;;;9.87;;
56399;SDS011;42298;53.638;9.876;2023-03-01T04:44:08;19.00;;;10.80;;
56399;SDS011;42298;53.638;9.876;2023-03-01T04:46:34;18.00;;;11.47;;
56399;SDS011;42298;53.638;9.876;2023-03-01T04:49:00;17.20;;;10.50;;
56399;SDS011;42298;53.638;9.876;2023-03-01T04:51:25;16.93;;;10.60;;
56399;SDS011;42298;53.638;9.876;2023-03-01T04:53:51;17.27;;;10.47;;
56399;SDS011;42298;53.638;9.876;2023-03-01T04:56:16;19.10;;;10.87;;
56399;SDS011;42298;53.638;9.876;2023-03-01T04:58:46;15.83;;;9.67;;
56399;SDS011;42298;53.638;9.876;2023-03-01T05:01:12;17.57;;;10.53;;
56399;SDS011;42298;53.638;9.876;2023-03-01T05:03:43;18.03;;;10.30;;
56399;SDS011;42298;53.638;9.876;2023-03-01T05:06:10;17.63;;;10.67;;
56399;SDS011;42298;53.638;9.876;2023-03-01T05:08:36;16.83;;;10.13;;
56399;SDS011;42298;53.638;9.876;2023-03-01T05:11:02;17.60;;;9.60;;
56399;SDS011;42298;53.638;9.876;2023-03-01T05:13:27;15.23;;;9.07;;
56399;SDS011;42298;53.638;9.876;2023-03-01T05:15:55;15.67;;;10.20;;
56399;SDS011;42298;53.638;9.876;2023-03-01T05:18:26;18.63;;;11.20;;
56399;SDS011;42298;53.638;9.876;2023-03-01T05:20:54;16.03;;;10.47;;
56399;SDS011;42298;53.638;9.876;2023-03-01T05:23:23;16.07;;;9.07;;
56399;SDS011;42298;53.638;9.876;2023-03-01T05:25:49;14.73;;;8.93;;
56399;SDS011;42298;53.638;9.876;2023-03-01T05:28:17;16.27;;;9.40;;
56399;SDS011;42298;53.638;9.876;2023-03-01T05:30:44;14.53;;;9.27;;
56399;SDS011;42298;53.638;9.876;2023-03-01T05:33:10;17.03;;;9.53;;
56399;SDS011;42298;53.638;9.876;2023-03-01T05:35:38;15.77;;;9.77;;
56399;SDS011;42298;53.638;9.876;2023-03-01T05:38:05;16.70;;;10.37;;
56399;SDS011;42298;53.638;9.876;2023-03-01T05:40:32;15.93;;;9.07;;
56399;SDS011;42298;53.638;9.876;2023-03-01T05:42:58;15.17;;;9.03;;
56399;SDS011;42298;53.638;9.876;2023-03-01T05:45:24;18.90;;;11.07;;
56399;SDS011;42298;53.638;9.876;2023-03-01T05:47:51;16.47;;;10.00;;
56399;SDS011;42298;53.638;9.876;2023-03-01T05:50:18;18.03;;;9.70;;
56399;SDS011;42298;53.638;9.876;2023-03-01T05:52:50;15.03;;;9.43;;
56399;SDS011;42298;53.638;9.876;2023-03-01T05:55:18;15.87;;;8.97;;
56399;SDS011;42298;53.638;9.876;2023-03-01T05:57:46;17.10;;;10.30;;
56399;SDS011;42298;53.638;9.876;2023-03-01T06:00:13;16.03;;;9.30;;
56399;SDS011;42298;53.638;9.876;2023-03-01T06:02:40;17.60;;;9.43;;
56399;SDS011;42298;53.638;9.876;2023-03-01T06:05:07;16.33;;;8.80;;
56399;SDS011;42298;53.638;9.876;2023-03-01T06:07:34;16.83;;;9.70;;
56399;SDS011;42298;53.638;9.876;2023-03-01T06:10:00;15.80;;;9.83;;
56399;SDS011;42298;53.638;9.876;2023-03-01T06:12:25;14.13;;;9.17;;
56399;SDS011;42298;53.638;9.876;2023-03-01T06:14:51;14.97;;;8.97;;
56399;SDS011;42298;53.638;9.876;2023-03-01T06:17:16;18.43;;;8.60;;
56399;SDS011;42298;53.638;9.876;2023-03-01T06:19:42;15.73;;;8.83;;
56399;SDS011;42298;53.638;9.876;2023-03-01T06:22:07;15.40;;;8.77;;
56399;SDS011;42298;53.638;9.876;2023-03-01T06:24:33;16.83;;;9.80;;
56399;SDS011;42298;53.638;9.876;2023-03-01T06:27:02;14.47;;;9.07;;
56399;SDS011;42298;53.638;9.876;2023-03-01T06:29:27;14.53;;;8.83;;
56399;SDS011;42298;53.638;9.876;2023-03-01T06:31:52;14.00;;;7.87;;
56399;SDS011;42298;53.638;9.876;2023-03-01T06:34:18;15.70;;;8.47;;
56399;SDS011;42298;53.638;9.876;2023-03-01T06:36:44;14.23;;;8.47;;
56399;SDS011;42298;53.638;9.876;2023-03-01T06:39:09;17.17;;;9.27;;
56399;SDS011;42298;53.638;9.876;2023-03-01T06:41:35;16.70;;;8.87;;
56399;SDS011;42298;53.638;9.876;2023-03-01T06:44:00;14.07;;;7.63;;
56399;SDS011;42298;53.638;9.876;2023-03-01T06:46:25;16.30;;;8.73;;
56399;SDS011;42298;53.638;9.876;2023-03-01T06:48:51;14.80;;;7.83;;
56399;SDS011;42298;53.638;9.876;2023-03-01T06:51:16;13.47;;;7.53;;
56399;SDS011;42298;53.638;9.876;2023-03-01T06:53:41;14.83;;;8.97;;
56399;SDS011;42298;53.638;9.876;2023-03-01T06:56:07;14.80;;;8.70;;
56399;SDS011;42298;53.638;9.876;2023-03-01T06:58:32;15.63;;;8.13;;
56399;SDS011;42298;53.638;9.876;2023-03-01T07:00:57;14.10;;;8.10;;
56399;SDS011;42298;53.638;9.876;2023-03-01T07:03:23;13.73;;;8.30;;
56399;SDS011;42298;53.638;9.876;2023-03-01T07:05:49;13.90;;;7.87;;
56399;SDS011;42298;53.638;9.876;2023-03-01T07:08:16;13.23;;;7.60;;
56399;SDS011;42298;53.638;9.876;2023-03-01T07:10:41;11.53;;;7.30;;
56399;SDS011;42298;53.638;9.876;2023-03-01T07:13:07;13.40;;;7.93;;
56399;SDS011;42298;53.638;9.876;2023-03-01T07:15:33;12.10;;;6.93;;
56399;SDS011;42298;53.638;9.876;2023-03-01T07:17:58;14.83;;;7.93;;
56399;SDS011;42298;53.638;9.876;2023-03-01T07:20:24;14.47;;;7.97;;
56399;SDS011;42298;53.638;9.876;2023-03-01T07:22:50;14.13;;;7.60;;
56399;SDS011;42298;53.638;9.876;2023-03-01T07:25:16;13.87;;;7.63;;
56399;SDS011;42298;53.638;9.876;2023-03-01T07:27:43;13.37;;;6.83;;
56399;SDS011;42298;53.638;9.876;2023-03-01T07:30:13;12.07;;;7.63;;
56399;SDS011;42298;53.638;9.876;2023-03-01T07:32:38;16.17;;;7.93;;
56399;SDS011;42298;53.638;9.876;2023-03-01T07:35:04;15.03;;;7.87;;
56399;SDS011;42298;53.638;9.876;2023-03-01T07:37:29;12.63;;;6.97;;
56399;SDS011;42298;53.638;9.876;2023-03-01T07:39:55;12.30;;;7.23;;
56399;SDS011;42298;53.638;9.876;2023-03-01T07:42:20;16.23;;;7.03;;
56399;SDS011;42298;53.638;9.876;2023-03-01T07:44:45;13.57;;;7.30;;
56399;SDS011;42298;53.638;9.876;2023-03-01T07:47:10;12.60;;;7.60;;
56399;SDS011;42298;53.638;9.876;2023-03-01T07:49:36;13.60;;;8.40;;
56399;SDS011;42298;53.638;9.876;2023-03-01T07:52:01;15.10;;;9.97;;
56399;SDS011;42298;53.638;9.876;2023-03-01T07:54:26;19.43;;;9.83;;
56399;SDS011;42298;53.638;9.876;2023-03-01T07:56:52;13.83;;;8.17;;
56399;SDS011;42298;53.638;9.876;2023-03-01T07:59:17;14.00;;;8.53;;
56399;SDS011;42298;53.638;9.876;2023-03-01T08:01:42;13.00;;;8.17;;
56399;SDS011;42298;53.638;9.876;2023-03-01T08:04:08;14.63;;;8.93;;
56399;SDS011;42298;53.638;9.876;2023-03-01T08:06:33;14.47;;;8.43;;
56399;SDS011;42298;53.638;9.876;2023-03-01T08:08:59;14.33;;;9.10;;
56399;SDS011;42298;53.638;9.876;2023-03-01T08:11:25;15.83;;;9.10;;
56399;SDS011;42298;53.638;9.876;2023-03-01T08:13:52;16.63;;;9.90;;
56399;SDS011;42298;53.638;9.876;2023-03-01T08:16:19;15.30;;;9.90;;
56399;SDS011;42298;53.638;9.876;2023-03-01T08:18:47;18.03;;;9.23;;
56399;SDS011;42298;53.638;9.876;2023-03-01T08:21:15;17.03;;;9.93;;
56399;SDS011;42298;53.638;9.876;2023-03-01T08:23:41;18.03;;;9.77;;
56399;SDS011;42298;53.638;9.876;2023-03-01T08:26:08;17.53;;;10.30;;
56399;SDS011;42298;53.638;9.876;2023-03-01T08:28:35;16.47;;;9.93;;
56399;SDS011;42298;53.638;9.876;2023-03-01T08:31:01;18.53;;;10.33;;
56399;SDS011;42298;53.638;9.876;2023-03-01T08:33:26;15.27;;;9.90;;
56399;SDS011;42298;53.638;9.876;2023-03-01T08:35:52;17.93;;;11.37;;
56399;SDS011;42298;53.638;9.876;2023-03-01T08:38:17;20.30;;;11.37;;
56399;SDS011;42298;53.638;9.876;2023-03-01T08:40:42;16.93;;;12.10;;
56399;SDS011;42298;53.638;9.876;2023-03-01T08:43:07;18.37;;;11.77;;
56399;SDS011;42298;53.638;9.876;2023-03-01T08:45:33;18.93;;;11.13;;
56399;SDS011;42298;53.638;9.876;2023-03-01T08:47:58;19.17;;;12.50;;
56399;SDS011;42298;53.638;9.876;2023-03-01T08:50:23;17.20;;;11.87;;
56399;SDS011;42298;53.638;9.876;2023-03-01T08:52:49;20.53;;;11.13;;
56399;SDS011;42298;53.638;9.876;2023-03-01T08:55:15;19.50;;;12.30;;
56399;SDS011;42298;53.638;9.876;2023-03-01T08:57:42;18.90;;;12.50;;
56399;SDS011;42298;53.638;9.876;2023-03-01T09:00:08;19.43;;;13.00;;
56399;SDS011;42298;53.638;9.876;2023-03-01T09:02:35;17.70;;;11.47;;
56399;SDS011;42298;53.638;9.876;2023-03-01T09:05:01;22.10;;;12.97;;
56399;SDS011;42298;53.638;9.876;2023-03-01T09:07:26;20.17;;;13.50;;
56399;SDS011;42298;53.638;9.876;2023-03-01T09:09:53;20.10;;;12.77;;
56399;SDS011;42298;53.638;9.876;2023-03-01T09:12:20;18.93;;;11.50;;
56399;SDS011;42298;53.638;9.876;2023-03-01T09:14:45;18.73;;;12.20;;
56399;SDS011;42298;53.638;9.876;2023-03-01T09:17:10;21.20;;;13.70;;
56399;SDS011;42298;53.638;9.876;2023-03-01T09:19:36;20.40;;;13.43;;
56399;SDS011;42298;53.638;9.876;2023-03-01T09:22:02;19.40;;;12.83;;
56399;SDS011;42298;53.638;9.876;2023-03-01T09:24:29;20.27;;;13.50;;
56399;SDS011;42298;53.638;9.876;2023-03-01T09:26:55;20.87;;;13.67;;
56399;SDS011;42298;53.638;9.876;2023-03-01T09:29:22;24.00;;;14.53;;
56399;SDS011;42298;53.638;9.876;2023-03-01T09:31:48;25.53;;;16.87;;
56399;SDS011;42298;53.638;9.876;2023-03-01T09:34:14;27.47;;;15.67;;
56399;SDS011;42298;53.638;9.876;2023-03-01T09:36:41;28.57;;;16.70;;
56399;SDS011;42298;53.638;9.876;2023-03-01T09:39:06;23.47;;;14.47;;
56399;SDS011;42298;53.638;9.876;2023-03-01T09:47:21;21.67;;;12.90;;
56399;SDS011;42298;53.638;9.876;2023-03-01T09:49:56;17.30;;;11.13;;
56399;SDS011;42298;53.638;9.876;2023-03-01T09:55:18;17.13;;;11.40;;
56399;SDS011;42298;53.638;9.876;2023-03-01T09:57:53;18.93;;;11.87;;
56399;SDS011;42298;53.638;9.876;2023-03-01T10:00:29;18.67;;;12.40;;
56399;SDS011;42298;53.638;9.876;2023-03-01T10:06:10;17.40;;;10.93;;
56399;SDS011;42298;53.638;9.876;2023-03-01T10:11:19;16.20;;;10.20;;
56399;SDS011;42298;53.638;9.876;2023-03-01T10:13:51;17.10;;;10.53;;
56399;SDS011;42298;53.638;9.876;2023-03-01T10:16:43;17.57;;;10.63;;
56399;SDS011;42298;53.638;9.876;2023-03-01T10:19:15;16.00;;;10.03;;
56399;SDS011;42298;53.638;9.876;2023-03-01T10:24:48;16.77;;;9.60;;
56399;SDS011;42298;53.638;9.876;2023-03-01T10:27:26;17.10;;;10.10;;
56399;SDS011;42298;53.638;9.876;2023-03-01T10:30:05;21.57;;;9.77;;
56399;SDS011;42298;53.638;9.876;2023-03-01T10:32:38;17.67;;;9.80;;
56399;SDS011;42298;53.638;9.876;2023-03-01T10:35:22;14.23;;;9.20;;
56399;SDS011;42298;53.638;9.876;2023-03-01T10:38:03;16.83;;;10.47;;
56399;SDS011;42298;53.638;9.876;2023-03-01T10:40:34;14.70;;;9.07;;
56399;SDS011;42298;53.638;9.876;2023-03-01T10:43:14;14.10;;;8.53;;
56399;SDS011;42298;53.638;9.876;2023-03-01T10:45:39;14.43;;;8.37;;
56399;SDS011;42298;53.638;9.876;2023-03-01T10:50:33;15.53;;;8.70;;
56399;SDS011;42298;53.638;9.876;2023-03-01T10:53:00;15.20;;;9.07;;
56399;SDS011;42298;53.638;9.876;2023-03-01T11:00:34;15.30;;;8.60;;
56399;SDS011;42298;53.638;9.876;2023-03-01T11:03:13;15.77;;;9.53;;
56399;SDS011;42298;53.638;9.876;2023-03-01T11:08:29;14.57;;;8.73;;
56399;SDS011;42298;53.638;9.876;2023-03-01T11:11:03;16.17;;;9.17;;
56399;SDS011;42298;53.638;9.876;2023-03-01T11:16:42;13.50;;;8.53;;
56399;SDS011;42298;53.638;9.876;2023-03-01T11:21:39;14.27;;;8.27;;
56399;SDS011;42298;53.638;9.876;2023-03-01T11:24:11;11.93;;;7.00;;
56399;SDS011;42298;53.638;9.876;2023-03-01T11:26:40;15.10;;;8.13;;
56399;SDS011;42298;53.638;9.876;2023-03-01T11:31:57;14.13;;;8.17;;
56399;SDS011;42298;53.638;9.876;2023-03-01T11:37:41;13.30;;;8.57;;
56399;SDS011;42298;53.638;9.876;2023-03-01T11:40:25;14.40;;;9.27;;
56399;SDS011;42298;53.638;9.876;2023-03-01T11:45:43;15.33;;;9.70;;
56399;SDS011;42298;53.638;9.876;2023-03-01T11:48:27;15.00;;;9.43;;
56399;SDS011;42298;53.638;9.876;2023-03-01T11:50:56;14.23;;;8.93;;
56399;SDS011;42298;53.638;9.876;2023-03-01T11:53:30;15.03;;;9.47;;
56399;SDS011;42298;53.638;9.876;2023-03-01T11:56:03;16.60;;;10.47;;
56399;SDS011;42298;53.638;9.876;2023-03-01T11:59:19;16.97;;;10.17;;
56399;SDS011;42298;53.638;9.876;2023-03-01T12:01:52;17.43;;;10.50;;
56399;SDS011;42298;53.638;9.876;2023-03-01T12:07:51;15.80;;;9.60;;
56399;SDS011;42298;53.638;9.876;2023-03-01T12:18:45;17.67;;;10.60;;
56399;SDS011;42298;53.638;9.876;2023-03-01T12:24:05;18.03;;;10.97;;
56399;SDS011;42298;53.638;9.876;2023-03-01T12:32:24;15.43;;;10.50;;
56399;SDS011;42298;53.638;9.876;2023-03-01T12:37:54;15.30;;;9.20;;
56399;SDS011;42298;53.638;9.876;2023-03-01T12:43:03;16.07;;;9.77;;
56399;SDS011;42298;53.638;9.876;2023-03-01T12:48:29;15.97;;;9.23;;
56399;SDS011;42298;53.638;9.876;2023-03-01T12:51:06;15.57;;;9.30;;
56399;SDS011;42298;53.638;9.876;2023-03-01T12:53:39;14.83;;;9.07;;
56399;SDS011;42298;53.638;9.876;2023-03-01T12:56:10;17.00;;;10.00;;
56399;SDS011;42298;53.638;9.876;2023-03-01T12:58:40;15.30;;;10.07;;
56399;SDS011;42298;53.638;9.876;2023-03-01T13:01:36;15.97;;;10.43;;
56399;SDS011;42298;53.638;9.876;2023-03-01T13:04:17;16.10;;;9.37;;
56399;SDS011;42298;53.638;9.876;2023-03-01T13:09:50;18.07;;;10.17;;
56399;SDS011;42298;53.638;9.876;2023-03-01T13:17:51;15.33;;;9.40;;
56399;SDS011;42298;53.638;9.876;2023-03-01T13:20:19;16.43;;;9.83;;
56399;SDS011;42298;53.638;9.876;2023-03-01T13:23:07;16.30;;;9.70;;
56399;SDS011;42298;53.638;9.876;2023-03-01T13:26:01;15.10;;;9.60;;
56399;SDS011;42298;53.638;9.876;2023-03-01T13:31:01;14.43;;;9.23;;
56399;SDS011;42298;53.638;9.876;2023-03-01T13:35:54;15.50;;;8.20;;
56399;SDS011;42298;53.638;9.876;2023-03-01T13:38:36;13.77;;;8.00;;
56399;SDS011;42298;53.638;9.876;2023-03-01T13:41:11;13.90;;;7.90;;
56399;SDS011;42298;53.638;9.876;2023-03-01T13:43:38;13.13;;;7.47;;
56399;SDS011;42298;53.638;9.876;2023-03-01T13:46:08;13.47;;;7.87;;
56399;SDS011;42298;53.638;9.876;2023-03-01T13:48:36;13.40;;;7.23;;
56399;SDS011;42298;53.638;9.876;2023-03-01T13:51:04;12.43;;;7.40;;
56399;SDS011;42298;53.638;9.876;2023-03-01T13:53:39;13.47;;;7.87;;
56399;SDS011;42298;53.638;9.876;2023-03-01T13:58:49;14.07;;;7.80;;
56399;SDS011;42298;53.638;9.876;2023-03-01T14:03:49;14.13;;;8.03;;
56399;SDS011;42298;53.638;9.876;2023-03-01T14:06:16;12.70;;;7.40;;
56399;SDS011;42298;53.638;9.876;2023-03-01T14:08:45;12.67;;;7.33;;
56399;SDS011;42298;53.638;9.876;2023-03-01T14:11:24;14.10;;;6.97;;
56399;SDS011;42298;53.638;9.876;2023-03-01T14:14:21;13.10;;;7.63;;
56399;SDS011;42298;53.638;9.876;2023-03-01T14:17:00;13.03;;;6.27;;
56399;SDS011;42298;53.638;9.876;2023-03-01T14:19:36;12.77;;;6.87;;
56399;SDS011;42298;53.638;9.876;2023-03-01T14:27:17;13.80;;;7.93;;
56399;SDS011;42298;53.638;9.876;2023-03-01T14:29:44;13.83;;;7.63;;
56399;SDS011;42298;53.638;9.876;2023-03-01T14:32:24;14.00;;;7.33;;
56399;SDS011;42298;53.638;9.876;2023-03-01T14:34:54;14.83;;;8.80;;
56399;SDS011;42298;53.638;9.876;2023-03-01T14:37:28;15.77;;;8.73;;
56399;SDS011;42298;53.638;9.876;2023-03-01T14:39:56;15.20;;;8.47;;
56399;SDS011;42298;53.638;9.876;2023-03-01T14:42:24;15.37;;;8.80;;
56399;SDS011;42298;53.638;9.876;2023-03-01T14:44:53;15.27;;;8.63;;
56399;SDS011;42298;53.638;9.876;2023-03-01T14:47:28;17.43;;;9.67;;
56399;SDS011;42298;53.638;9.876;2023-03-01T14:50:01;16.17;;;8.57;;
56399;SDS011;42298;53.638;9.876;2023-03-01T14:52:34;16.33;;;9.53;;
56399;SDS011;42298;53.638;9.876;2023-03-01T14:55:27;17.53;;;9.77;;
56399;SDS011;42298;53.638;9.876;2023-03-01T14:57:52;16.57;;;9.27;;
56399;SDS011;42298;53.638;9.876;2023-03-01T15:00:28;16.03;;;9.47;;
56399;SDS011;42298;53.638;9.876;2023-03-01T15:02:56;16.73;;;10.47;;
56399;SDS011;42298;53.638;9.876;2023-03-01T15:05:30;17.23;;;10.37;;
56399;SDS011;42298;53.638;9.876;2023-03-01T15:07:57;19.23;;;10.33;;
56399;SDS011;42298;53.638;9.876;2023-03-01T15:10:27;19.40;;;10.87;;
56399;SDS011;42298;53.638;9.876;2023-03-01T15:12:55;17.83;;;10.80;;
56399;SDS011;42298;53.638;9.876;2023-03-01T15:17:53;19.77;;;11.93;;
56399;SDS011;42298;53.638;9.876;2023-03-01T15:20:20;19.20;;;11.97;;
56399;SDS011;42298;53.638;9.876;2023-03-01T15:22:51;21.77;;;12.80;;
56399;SDS011;42298;53.638;9.876;2023-03-01T15:25:30;17.60;;;11.03;;
56399;SDS011;42298;53.638;9.876;2023-03-01T15:27:56;21.90;;;12.43;;
56399;SDS011;42298;53.638;9.876;2023-03-01T15:30:28;20.13;;;12.60;;
56399;SDS011;42298;53.638;9.876;2023-03-01T15:33:18;19.40;;;11.37;;
56399;SDS011;42298;53.638;9.876;2023-03-01T15:35:48;21.87;;;13.43;;
56399;SDS011;42298;53.638;9.876;2023-03-01T15:38:23;20.37;;;12.87;;
56399;SDS011;42298;53.638;9.876;2023-03-01T15:40:53;21.80;;;13.03;;
56399;SDS011;42298;53.638;9.876;2023-03-01T15:43:40;20.70;;;12.87;;
56399;SDS011;42298;53.638;9.876;2023-03-01T15:46:15;19.57;;;11.90;;
56399;SDS011;42298;53.638;9.876;2023-03-01T15:48:47;21.20;;;12.70;;
56399;SDS011;42298;53.638;9.876;2023-03-01T15:51:15;18.80;;;11.70;;
56399;SDS011;42298;53.638;9.876;2023-03-01T15:53:43;19.23;;;12.53;;
56399;SDS011;42298;53.638;9.876;2023-03-01T15:56:14;17.87;;;11.47;;
56399;SDS011;42298;53.638;9.876;2023-03-01T15:58:39;19.17;;;11.57;;
56399;SDS011;42298;53.638;9.876;2023-03-01T16:01:08;18.63;;;11.73;;
56399;SDS011;42298;53.638;9.876;2023-03-01T16:03:37;19.30;;;11.57;;
56399;SDS011;42298;53.638;9.876;2023-03-01T16:06:03;19.30;;;11.90;;
56399;SDS011;42298;53.638;9.876;2023-03-01T16:08:28;22.93;;;12.37;;
56399;SDS011;42298;53.638;9.876;2023-03-01T16:10:54;19.77;;;11.53;;
56399;SDS011;42298;53.638;9.876;2023-03-01T16:13:19;20.17;;;11.60;;
56399;SDS011;42298;53.638;9.876;2023-03-01T16:15:44;17.33;;;10.57;;
56399;SDS011;42298;53.638;9.876;2023-03-01T16:18:10;16.67;;;10.30;;
56399;SDS011;42298;53.638;9.876;2023-03-01T16:20:36;15.37;;;9.70;;